CheckWX is a tool to help pilots better visualize weather data.  It is not intended as a substitute for an official pre-flight weather briefing.

00:54:18 UTC

EGDX METAR
MOD St. Athan Airport
St. Athan, United Kingdom
Current

1 hour ago

EGDX 232350Z AUTO 05005KT 9999 BKN046/// BKN090/// BKN130/// 08/03 Q1032
Observed
Mar-23 @ 23:50 UTC
Wind
  • 050° at 5 KTS
Visibility
10,000+ meters
Flight Rules
VFR
Cloud Levels
  • Broken at 4,600' AGL
  • Broken at 9,000' AGL
  • Broken at 13,000' AGL
Temperature
C / 46°F
Dewpoint
C / 37°F
Humidity
71%
Altimeter
30.47" Hg
Pressure
1031.91 hPa
Previous

2 hours ago

EGDX 232250Z AUTO 03007KT 9999 BKN050/// BKN100/// 08/03 Q1032
Observed
Mar-23 @ 22:50 UTC
Wind
  • 030° at 7 KTS
Visibility
10,000+ meters
Flight Rules
VFR
Cloud Levels
  • Broken at 5,000' AGL
  • Broken at 10,000' AGL
Temperature
C / 46°F
Dewpoint
C / 37°F
Humidity
71%
Altimeter
30.47" Hg
Pressure
1031.91 hPa
Previous

3 hours ago

EGDX 232150Z AUTO 04006KT 9999 BKN050/// 08/03 Q1032
Observed
Mar-23 @ 21:50 UTC
Wind
  • 040° at 6 KTS
Visibility
10,000+ meters
Flight Rules
VFR
Cloud Levels
  • Broken at 5,000' AGL
Temperature
C / 46°F
Dewpoint
C / 37°F
Humidity
71%
Altimeter
30.47" Hg
Pressure
1031.91 hPa